createdAt,value
2022-11-03T00:02:27.824Z,96036.34
2022-11-03T00:04:57.471Z,96028.16
2022-11-03T00:07:26.887Z,96026.88
2022-11-03T00:09:57.668Z,96021.75
2022-11-03T00:12:27.046Z,96028.91
2022-11-03T00:14:56.471Z,96024.59
2022-11-03T00:17:25.831Z,96019.72
2022-11-03T00:19:55.199Z,96019.09
2022-11-03T00:22:24.618Z,96025.03
2022-11-03T00:24:54.050Z,96033.06
2022-11-03T00:27:24.863Z,96025.72
2022-11-03T00:29:54.246Z,96027.97
2022-11-03T00:32:23.690Z,96028.41
2022-11-03T00:34:53.103Z,96019.00
2022-11-03T00:37:22.505Z,96013.06
2022-11-03T00:39:51.963Z,96008.56
2022-11-03T00:42:21.362Z,96009.19
2022-11-03T00:44:52.079Z,95998.94
2022-11-03T00:47:24.195Z,96004.47
2022-11-03T00:49:53.798Z,96000.16
2022-11-03T00:52:23.300Z,95991.13
2022-11-03T00:54:55.191Z,95992.97
2022-11-03T00:57:24.906Z,95995.66
2022-11-03T00:59:55.650Z,95996.66
2022-11-03T01:02:25.098Z,95994.22
2022-11-03T01:05:12.008Z,95995.25
2022-11-03T01:07:41.599Z,95990.53
2022-11-03T01:10:11.763Z,95991.78
2022-11-03T01:12:41.119Z,95985.84
2022-11-03T01:15:12.112Z,95990.13
2022-11-03T01:17:41.858Z,95990.75
2022-11-03T01:20:12.416Z,95989.50
2022-11-03T01:22:41.776Z,95986.44
2022-11-03T01:25:11.240Z,95994.63
2022-11-03T01:27:40.732Z,95985.03
2022-11-03T01:30:13.285Z,95991.59
2022-11-03T01:32:42.763Z,95987.50
2022-11-03T01:35:12.235Z,95974.41
2022-11-03T01:37:41.664Z,95974.84
2022-11-03T01:40:13.133Z,95968.69
2022-11-03T01:42:42.594Z,95965.44
2022-11-03T01:45:13.420Z,95956.66
2022-11-03T01:47:44.923Z,95952.97
2022-11-03T01:50:19.349Z,95955.22
2022-11-03T01:52:53.430Z,95947.84
2022-11-03T01:55:28.163Z,95955.22
2022-11-03T01:58:04.108Z,95954.59
2022-11-03T02:00:35.129Z,95954.00
2022-11-03T02:03:05.780Z,95958.50
2022-11-03T02:05:35.804Z,95951.34
2022-11-03T02:08:12.113Z,95942.75
2022-11-03T02:10:41.926Z,95949.69
2022-11-03T02:13:20.053Z,95946.84
2022-11-03T02:15:57.236Z,95938.44
2022-11-03T02:18:32.688Z,95945.19
2022-11-03T02:21:22.787Z,95939.66
2022-11-03T02:24:00.755Z,95932.28
2022-11-03T02:26:32.073Z,95926.53
2022-11-03T02:29:01.620Z,95926.94
2022-11-03T02:31:39.499Z,95912.19
2022-11-03T02:34:17.088Z,95897.22
2022-11-03T02:36:52.983Z,95891.44
2022-11-03T02:39:28.786Z,95889.75
2022-11-03T02:42:01.922Z,95880.94
2022-11-03T02:44:33.817Z,95878.19
2022-11-03T02:47:09.752Z,95875.09
2022-11-03T02:49:41.034Z,95866.91
2022-11-03T02:52:38.685Z,95868.75
2022-11-03T02:55:16.824Z,95856.06
2022-11-03T02:57:57.721Z,95852.16
2022-11-03T03:00:27.801Z,95850.72
2022-11-03T03:03:06.228Z,95851.16
2022-11-03T03:05:38.688Z,95839.09
2022-11-03T03:08:11.883Z,95834.81
2022-11-03T03:10:44.998Z,95841.16
2022-11-03T03:13:20.553Z,95847.38
2022-11-03T03:16:08.046Z,95849.25
2022-11-03T03:18:49.951Z,95847.25
2022-11-03T03:21:26.498Z,95840.13
2022-11-03T03:24:02.353Z,95844.09
2022-11-03T03:26:40.099Z,95854.34
2022-11-03T03:29:16.864Z,95851.13
2022-11-03T03:31:55.036Z,95850.94
2022-11-03T03:34:35.294Z,95853.88
2022-11-03T03:37:07.993Z,95860.63
2022-11-03T03:39:40.871Z,95855.94
2022-11-03T03:42:13.418Z,95857.41
2022-11-03T03:44:46.206Z,95849.25
2022-11-03T03:47:25.401Z,95836.38
2022-11-03T03:49:54.864Z,95840.28
2022-11-03T03:52:25.114Z,95836.00
2022-11-03T03:54:55.300Z,95839.03
2022-11-03T03:57:26.324Z,95835.75
2022-11-03T03:59:57.185Z,95838.81
2022-11-03T04:02:26.726Z,95837.16
2022-11-03T04:04:58.353Z,95833.50
2022-11-03T04:07:45.197Z,95828.59
2022-11-03T04:10:15.046Z,95832.69
2022-11-03T04:13:03.312Z,95830.25
2022-11-03T04:15:52.139Z,95832.53
2022-11-03T04:18:41.066Z,95824.19
2022-11-03T04:21:32.607Z,95819.50
2022-11-03T04:24:02.005Z,95820.34
2022-11-03T04:26:31.588Z,95814.63
2022-11-03T04:29:03.191Z,95812.41
2022-11-03T04:31:37.479Z,95810.78
2022-11-03T04:34:13.284Z,95806.47
2022-11-03T04:36:43.283Z,95794.44
2022-11-03T04:39:20.834Z,95803.22
2022-11-03T04:41:50.372Z,95796.88
2022-11-03T04:44:20.186Z,95798.13
2022-11-03T04:46:50.926Z,95789.13
2022-11-03T04:49:24.438Z,95787.28
2022-11-03T04:51:53.936Z,95783.81
2022-11-03T04:54:24.998Z,95784.00
2022-11-03T04:56:54.515Z,95780.31
2022-11-03T04:59:23.878Z,95771.13
2022-11-03T05:01:54.819Z,95772.13
2022-11-03T05:04:24.444Z,95776.59
2022-11-03T05:06:54.735Z,95775.34
2022-11-03T05:09:31.132Z,95774.06
2022-11-03T05:12:00.744Z,95762.00
2022-11-03T05:14:32.785Z,95763.19
2022-11-03T05:17:12.341Z,95758.88
2022-11-03T05:19:44.432Z,95753.75
2022-11-03T05:22:19.697Z,95735.31
2022-11-03T05:24:51.600Z,95730.13
2022-11-03T05:27:23.298Z,95729.28
2022-11-03T05:30:00.749Z,95713.50
2022-11-03T05:32:34.876Z,95717.13
2022-11-03T05:35:05.139Z,95714.44
2022-11-03T05:37:36.680Z,95707.41
2022-11-03T05:40:23.575Z,95702.84
2022-11-03T05:42:59.491Z,95699.53
2022-11-03T05:45:37.352Z,95699.47
2022-11-03T05:48:20.604Z,95701.47
2022-11-03T05:50:50.478Z,95698.13
2022-11-03T05:53:32.040Z,95698.28
2022-11-03T05:56:05.578Z,95697.63
2022-11-03T05:58:39.541Z,95693.28
2022-11-03T06:01:18.324Z,95690.16
2022-11-03T06:03:49.490Z,95694.00
2022-11-03T06:06:30.897Z,95690.88
2022-11-03T06:09:04.693Z,95698.88
2022-11-03T06:11:37.809Z,95707.22
2022-11-03T06:14:24.150Z,95699.47
2022-11-03T06:16:58.350Z,95706.63
2022-11-03T06:19:33.755Z,95695.53
2022-11-03T06:22:13.332Z,95687.13
2022-11-03T06:24:43.588Z,95691.78
2022-11-03T06:27:16.292Z,95683.72
2022-11-03T06:29:53.320Z,95691.38
2022-11-03T06:32:22.738Z,95685.97
2022-11-03T06:34:57.016Z,95685.31
2022-11-03T06:37:33.489Z,95683.22
2022-11-03T06:40:34.000Z,95694.25
2022-11-03T06:43:20.238Z,95686.19
2022-11-03T06:45:56.110Z,95681.19
2022-11-03T06:48:29.118Z,95684.22
2022-11-03T06:51:00.607Z,95680.28
2022-11-03T06:53:33.934Z,95677.16
2022-11-03T06:56:03.304Z,95681.59
2022-11-03T06:58:37.155Z,95670.03
2022-11-03T07:01:22.190Z,95672.59
2022-11-03T07:03:54.188Z,95671.91
2022-11-03T07:06:30.959Z,95656.84
2022-11-03T07:09:04.837Z,95666.38
2022-11-03T07:11:43.325Z,95673.13
2022-11-03T07:14:16.910Z,95670.31
2022-11-03T07:16:51.814Z,95671.34
2022-11-03T07:19:26.868Z,95667.66
2022-11-03T07:22:00.103Z,95666.25
2022-11-03T07:24:32.156Z,95675.41
2022-11-03T07:27:16.177Z,95672.31
2022-11-03T07:29:48.342Z,95672.53
2022-11-03T07:32:24.237Z,95668.59
2022-11-03T07:35:02.338Z,95658.63
2022-11-03T07:37:33.384Z,95655.63
2022-11-03T07:40:02.944Z,95649.81
2022-11-03T07:42:34.136Z,95631.06
2022-11-03T07:45:24.064Z,95627.25
2022-11-03T07:47:53.405Z,95631.97
2022-11-03T07:50:22.808Z,95620.38
2022-11-03T07:52:53.580Z,95626.28
2022-11-03T07:55:22.960Z,95626.63
2022-11-03T07:57:52.347Z,95616.53
2022-11-03T08:00:22.733Z,95623.34
2022-11-03T08:02:57.609Z,95611.75
2022-11-03T08:05:27.079Z,95608.38
2022-11-03T08:07:57.829Z,95600.94
2022-11-03T08:10:27.275Z,95594.09
2022-11-03T08:12:56.832Z,95601.97
2022-11-03T08:15:26.195Z,95587.66
2022-11-03T08:17:56.294Z,95584.06
2022-11-03T08:20:26.006Z,95576.38
2022-11-03T08:23:23.898Z,95576.47
2022-11-03T08:25:46.399Z,95572.28
2022-11-03T08:28:16.176Z,95574.47
2022-11-03T08:30:45.627Z,95573.28
2022-11-03T08:33:15.043Z,95566.53
2022-11-03T08:35:44.496Z,95558.75
2022-11-03T08:38:15.370Z,95559.09
2022-11-03T08:40:44.735Z,95553.91
2022-11-03T08:43:14.331Z,95560.72
2022-11-03T08:45:43.811Z,95552.22
2022-11-03T08:48:14.242Z,95549.88
2022-11-03T08:50:43.787Z,95548.69
2022-11-03T08:53:14.730Z,95548.75
2022-11-03T08:55:44.330Z,95544.28
2022-11-03T08:58:13.735Z,95530.78
2022-11-03T09:00:43.161Z,95520.72
2022-11-03T09:03:12.551Z,95525.41
2022-11-03T09:05:42.172Z,95518.34
2022-11-03T09:11:02.616Z,95514.44
2022-11-03T09:13:31.997Z,95510.16
2022-11-03T09:16:01.402Z,95513.63
2022-11-03T09:18:30.779Z,95513.47
2022-11-03T09:21:00.154Z,95510.59
2022-11-03T09:23:29.561Z,95500.28
2022-11-03T09:25:59.104Z,95497.72
2022-11-03T09:28:29.812Z,95495.56
2022-11-03T09:30:59.196Z,95489.50
2022-11-03T09:33:28.593Z,95491.19
2022-11-03T09:35:58.151Z,95497.97
2022-11-03T09:38:27.595Z,95491.88
2022-11-03T09:40:57.203Z,95484.16
2022-11-03T09:43:26.746Z,95474.28
2022-11-03T09:45:57.913Z,95477.56
2022-11-03T09:48:27.928Z,95462.88
2022-11-03T09:50:58.461Z,95465.34
2022-11-03T09:53:28.050Z,95459.03
2022-11-03T09:55:57.602Z,95454.56
2022-11-03T09:58:27.966Z,95456.75
2022-11-03T10:00:58.877Z,95453.56
2022-11-03T10:03:28.972Z,95455.19
2022-11-03T10:05:58.492Z,95447.47
2022-11-03T10:08:32.279Z,95441.94
2022-11-03T10:11:03.035Z,95443.59
2022-11-03T10:13:39.456Z,95437.72
2022-11-03T10:16:14.820Z,95429.44
2022-11-03T10:18:44.855Z,95432.16
2022-11-03T10:21:20.199Z,95416.94
2022-11-03T10:23:50.673Z,95428.56
2022-11-03T10:26:22.111Z,95426.13
2022-11-03T10:29:02.176Z,95432.31
2022-11-03T10:31:38.986Z,95425.56
2022-11-03T10:34:34.921Z,95430.97
2022-11-03T10:37:20.877Z,95411.66
2022-11-03T10:39:52.850Z,95409.78
2022-11-03T10:42:24.784Z,95401.50
2022-11-03T10:44:56.872Z,95397.00
2022-11-03T10:47:35.727Z,95407.47
2022-11-03T10:50:23.702Z,95396.47
2022-11-03T10:52:53.416Z,95391.91
2022-11-03T10:55:25.607Z,95393.53
2022-11-03T10:57:56.557Z,95391.38
2022-11-03T11:00:26.623Z,95391.69
2022-11-03T11:03:02.056Z,95385.75
2022-11-03T11:05:31.500Z,95391.97
2022-11-03T11:08:02.121Z,95386.34
2022-11-03T11:10:32.650Z,95384.47
2022-11-03T11:13:28.601Z,95388.53
2022-11-03T11:15:59.691Z,95387.19
2022-11-03T11:19:13.488Z,95382.94
2022-11-03T11:22:14.100Z,95375.19
2022-11-03T11:25:02.469Z,95372.00
2022-11-03T11:27:58.889Z,95361.25
2022-11-03T11:31:29.881Z,95349.97
2022-11-03T11:34:41.428Z,95344.88
2022-11-03T11:37:41.028Z,95339.78
2022-11-03T11:40:15.820Z,95342.19
2022-11-03T11:43:28.210Z,95350.78
2022-11-03T11:46:39.791Z,95349.19
2022-11-03T11:49:18.689Z,95345.13
2022-11-03T11:51:49.636Z,95337.06
2022-11-03T11:54:22.332Z,95351.84
2022-11-03T11:56:51.962Z,95346.19
2022-11-03T11:59:25.940Z,95344.00
2022-11-03T12:01:57.864Z,95337.84
2022-11-03T12:04:33.179Z,95340.78
2022-11-03T12:07:04.036Z,95336.69
2022-11-03T12:09:33.544Z,95332.91
2022-11-03T12:12:08.513Z,95325.59
2022-11-03T12:14:40.536Z,95322.06
2022-11-03T12:17:35.052Z,95318.25
2022-11-03T12:20:47.780Z,95300.16
2022-11-03T12:23:42.288Z,95294.19
2022-11-03T12:26:20.231Z,95283.09
2022-11-03T12:28:49.693Z,95277.44
2022-11-03T12:31:19.112Z,95282.81
2022-11-03T12:33:48.522Z,95277.44
2022-11-03T12:36:17.986Z,95278.50
2022-11-03T12:38:48.773Z,95276.25
2022-11-03T12:41:24.762Z,95281.06
2022-11-03T12:43:55.930Z,95271.63
2022-11-03T12:46:25.902Z,95264.88
2022-11-03T12:48:55.408Z,95264.84
2022-11-03T12:51:26.292Z,95254.50
2022-11-03T12:53:57.045Z,95246.91
2022-11-03T12:56:26.485Z,95247.91
2022-11-03T12:58:55.850Z,95246.00
2022-11-03T13:01:25.388Z,95242.44
2022-11-03T13:03:54.915Z,95238.91
2022-11-03T13:06:24.299Z,95234.56
2022-11-03T13:08:53.839Z,95223.19
2022-11-03T13:11:42.328Z,95212.34
2022-11-03T13:14:11.943Z,95214.16
2022-11-03T13:16:41.352Z,95208.16
2022-11-03T13:19:10.851Z,95201.47
2022-11-03T13:21:40.229Z,95202.03
2022-11-03T13:24:09.876Z,95204.75
2022-11-03T13:26:40.644Z,95202.56
2022-11-03T13:29:10.138Z,95200.38
2022-11-03T13:31:39.678Z,95180.19
2022-11-03T13:34:09.106Z,95185.78
2022-11-03T13:36:38.491Z,95188.78
2022-11-03T13:39:07.911Z,95194.47
2022-11-03T13:41:37.272Z,95186.16
2022-11-03T13:44:08.692Z,95172.38
2022-11-03T13:46:38.100Z,95157.81
2022-11-03T13:52:11.904Z,95152.91
2022-11-03T14:00:22.459Z,95127.91
2022-11-03T14:05:42.004Z,95137.94
2022-11-03T14:08:11.453Z,95140.97
2022-11-03T14:10:40.840Z,95155.03
2022-11-03T14:13:09.698Z,95144.00
2022-11-03T14:15:40.711Z,95141.59
2022-11-03T14:18:10.143Z,95148.13
2022-11-03T14:20:39.571Z,95146.84
2022-11-03T14:23:09.416Z,95138.03
2022-11-03T14:25:38.935Z,95126.47
2022-11-03T14:28:08.486Z,95116.59
2022-11-03T14:30:37.924Z,95109.34
2022-11-03T14:33:08.941Z,95113.97
2022-11-03T14:35:38.622Z,95122.91
2022-11-03T14:38:08.302Z,95119.69
2022-11-03T14:40:55.085Z,95120.84
2022-11-03T14:43:24.506Z,95107.44
2022-11-03T14:45:53.983Z,95101.81
2022-11-03T14:48:24.780Z,95099.69
2022-11-03T14:50:54.380Z,95105.91
2022-11-03T14:53:23.804Z,95101.38
2022-11-03T14:55:53.247Z,95092.53
2022-11-03T14:58:22.634Z,95090.72
2022-11-03T15:00:52.076Z,95079.97
2022-11-03T15:03:21.784Z,95071.94
2022-11-03T15:05:55.302Z,95075.47
2022-11-03T15:08:25.744Z,95079.28
2022-11-03T15:10:55.188Z,95079.91
2022-11-03T15:13:24.616Z,95063.56
2022-11-03T15:15:54.060Z,95042.06
2022-11-03T15:18:24.410Z,95045.31
2022-11-03T15:20:55.338Z,95033.22
2022-11-03T15:26:14.182Z,95026.31
2022-11-03T15:28:43.555Z,95025.25
2022-11-03T15:31:13.102Z,95014.25
2022-11-03T15:33:42.523Z,95014.81
2022-11-03T15:36:14.152Z,95008.94
2022-11-03T15:38:43.647Z,95000.59
2022-11-03T15:41:19.452Z,94990.41
2022-11-03T15:43:51.143Z,94979.13
2022-11-03T15:46:20.930Z,94970.84
2022-11-03T15:48:50.398Z,94970.06
2022-11-03T15:51:21.294Z,94959.34
2022-11-03T15:53:56.723Z,94945.66
2022-11-03T15:56:27.836Z,94948.38
2022-11-03T15:58:57.605Z,94950.03
2022-11-03T16:01:27.168Z,94955.44
2022-11-03T16:03:56.701Z,94957.38
2022-11-03T16:06:53.808Z,94946.66
2022-11-03T16:09:16.953Z,94941.31
2022-11-03T16:11:46.475Z,94946.16
2022-11-03T16:14:16.064Z,94934.88
2022-11-03T16:16:45.920Z,94933.53
2022-11-03T16:19:15.347Z,94935.72
2022-11-03T16:21:46.116Z,94932.53
2022-11-03T16:24:15.906Z,94919.63
2022-11-03T16:26:45.323Z,94911.84
2022-11-03T16:29:14.743Z,94911.34
2022-11-03T16:31:44.095Z,94911.09
2022-11-03T16:34:13.698Z,94911.91
2022-11-03T16:36:43.116Z,94905.47
2022-11-03T16:39:13.904Z,94890.19
2022-11-03T16:41:43.298Z,94898.84
2022-11-03T16:44:12.802Z,94888.41
2022-11-03T16:46:42.187Z,94895.66
2022-11-03T16:49:11.746Z,94889.50
2022-11-03T16:51:41.250Z,94871.81
2022-11-03T16:54:10.787Z,94874.75
2022-11-03T16:56:41.609Z,94861.34
2022-11-03T16:59:11.145Z,94848.44
2022-11-03T17:01:40.642Z,94843.88
2022-11-03T17:04:10.185Z,94835.81
2022-11-03T17:06:39.627Z,94833.41
2022-11-03T17:09:10.026Z,94823.47
2022-11-03T17:11:40.823Z,94819.19
2022-11-03T17:14:13.652Z,94809.81
2022-11-03T17:16:45.469Z,94799.06
2022-11-03T17:19:15.955Z,94790.50
2022-11-03T17:21:45.403Z,94793.19
2022-11-03T17:24:14.780Z,94786.25
2022-11-03T17:26:55.642Z,94779.28
2022-11-03T17:29:35.627Z,94767.22
2022-11-03T17:32:10.722Z,94760.22
2022-11-03T17:34:40.791Z,94759.72
2022-11-03T17:37:10.456Z,94763.19
2022-11-03T17:39:41.347Z,94749.25
2022-11-03T17:42:21.254Z,94742.28
2022-11-03T17:44:53.821Z,94740.94
2022-11-03T17:47:24.843Z,94741.47
2022-11-03T17:49:54.285Z,94733.69
2022-11-03T17:52:28.689Z,94731.25
2022-11-03T17:55:01.111Z,94719.72
2022-11-03T17:57:32.167Z,94707.91
2022-11-03T18:00:01.700Z,94706.84
2022-11-03T18:02:34.843Z,94711.94
2022-11-03T18:05:22.381Z,94717.28
2022-11-03T18:07:52.815Z,94708.16
2022-11-03T18:10:23.344Z,94684.81
2022-11-03T18:13:14.075Z,94683.72
2022-11-03T18:15:47.404Z,94690.19
2022-11-03T18:18:22.319Z,94683.22
2022-11-03T18:20:56.248Z,94692.06
2022-11-03T18:23:28.508Z,94682.41
2022-11-03T18:25:58.202Z,94688.56
2022-11-03T18:28:29.198Z,94695.81
2022-11-03T18:30:59.164Z,94694.22
2022-11-03T18:33:35.847Z,94701.19
2022-11-03T18:36:08.358Z,94696.91
2022-11-03T18:38:38.030Z,94691.00
2022-11-03T18:41:34.774Z,94687.25
2022-11-03T18:44:15.999Z,94676.78
2022-11-03T18:46:45.886Z,94674.91
2022-11-03T18:49:16.021Z,94666.84
2022-11-03T18:51:50.387Z,94655.31
2022-11-03T18:54:24.398Z,94656.94
2022-11-03T18:56:56.372Z,94645.13
2022-11-03T18:59:31.999Z,94639.75
2022-11-03T19:02:02.563Z,94637.34
2022-11-03T19:04:32.566Z,94632.22
2022-11-03T19:07:03.728Z,94624.16
2022-11-03T19:09:33.994Z,94620.13
2022-11-03T19:12:03.435Z,94618.25
2022-11-03T19:14:40.167Z,94618.25
2022-11-03T19:17:23.874Z,94613.94
2022-11-03T19:19:54.566Z,94609.38
2022-11-03T19:22:24.771Z,94597.84
2022-11-03T19:24:54.185Z,94585.50
2022-11-03T19:27:27.290Z,94576.66
2022-11-03T19:29:58.876Z,94569.13
2022-11-03T19:32:33.639Z,94568.84
2022-11-03T19:35:07.071Z,94566.16
2022-11-03T19:37:37.416Z,94568.84
2022-11-03T19:40:09.602Z,94555.72
2022-11-03T19:42:38.012Z,94550.06
2022-11-03T19:45:14.894Z,94540.41
2022-11-03T19:48:10.544Z,94527.78
2022-11-03T19:50:38.167Z,94525.09
2022-11-03T19:53:08.759Z,94517.06
2022-11-03T19:55:43.318Z,94524.31
2022-11-03T19:58:17.943Z,94514.66
2022-11-03T20:00:50.580Z,94517.53
2022-11-03T20:03:22.019Z,94508.19
2022-11-03T20:05:56.471Z,94501.22
2022-11-03T20:08:29.407Z,94510.09
2022-11-03T20:10:59.352Z,94512.78
2022-11-03T20:13:38.440Z,94493.97
2022-11-03T20:16:14.767Z,94485.94
2022-11-03T20:18:44.321Z,94462.88
2022-11-03T20:21:17.548Z,94460.69
2022-11-03T20:23:48.302Z,94470.63
2022-11-03T20:26:21.738Z,94479.13
2022-11-03T20:28:53.009Z,94474.81
2022-11-03T20:31:23.954Z,94474.31
2022-11-03T20:33:53.697Z,94459.59
2022-11-03T20:36:23.323Z,94455.81
2022-11-03T20:38:58.940Z,94442.47
2022-11-03T20:41:30.681Z,94433.91
2022-11-03T20:44:00.555Z,94421.88
2022-11-03T20:46:34.577Z,94416.50
2022-11-03T20:49:30.869Z,94421.06
2022-11-03T20:52:00.333Z,94425.41
2022-11-03T20:54:31.510Z,94419.81
2022-11-03T20:57:01.091Z,94423.56
2022-11-03T20:59:32.101Z,94416.59
2022-11-03T21:02:13.142Z,94409.66
2022-11-03T21:04:43.909Z,94400.28
2022-11-03T21:07:14.532Z,94406.72
2022-11-03T21:09:43.944Z,94406.22
2022-11-03T21:12:14.804Z,94411.38
2022-11-03T21:15:05.033Z,94402.81
2022-11-03T21:18:07.967Z,94402.03
2022-11-03T21:20:37.904Z,94399.63
2022-11-03T21:23:24.900Z,94382.44
2022-11-03T21:25:55.312Z,94377.66
2022-11-03T21:28:25.906Z,94377.66
2022-11-03T21:30:57.073Z,94389.97
2022-11-03T21:33:27.832Z,94392.13
2022-11-03T21:35:57.184Z,94390.31
2022-11-03T21:38:26.595Z,94392.75
2022-11-03T21:41:15.983Z,94391.97
2022-11-03T21:44:02.786Z,94396.81
2022-11-03T21:46:32.287Z,94391.72
2022-11-03T21:49:20.571Z,94398.16
2022-11-03T21:51:50.000Z,94381.84
2022-11-03T21:54:19.429Z,94383.44
2022-11-03T21:56:48.835Z,94382.38
2022-11-03T21:59:18.351Z,94381.56
2022-11-03T22:01:49.329Z,94385.06
2022-11-03T22:04:20.628Z,94382.13
2022-11-03T22:06:50.368Z,94388.81
2022-11-03T22:09:19.766Z,94390.97
2022-11-03T22:11:49.171Z,94395.53
2022-11-03T22:14:18.884Z,94396.66
2022-11-03T22:16:48.437Z,94414.53
2022-11-03T22:19:39.233Z,94419.19
2022-11-03T22:22:32.296Z,94409.81
2022-11-03T22:25:19.792Z,94424.03
2022-11-03T22:27:49.151Z,94417.88
2022-11-03T22:30:36.298Z,94409.81
2022-11-03T22:33:06.179Z,94432.22
2022-11-03T22:35:54.344Z,94457.63
2022-11-03T22:38:43.854Z,94480.31
2022-11-03T22:41:31.211Z,94476.25
2022-11-03T22:44:18.252Z,94471.69
2022-11-03T22:46:50.689Z,94469.00
2022-11-03T22:49:20.070Z,94481.34
2022-11-03T22:51:50.808Z,94490.66
2022-11-03T22:54:20.195Z,94493.03
2022-11-03T22:56:49.572Z,94506.38
2022-11-03T22:59:18.971Z,94519.50
2022-11-03T23:01:48.670Z,94526.56
2022-11-03T23:04:18.486Z,94534.25
2022-11-03T23:06:47.894Z,94530.06
2022-11-03T23:09:18.787Z,94547.75
2022-11-03T23:11:48.211Z,94553.44
2022-11-03T23:14:18.288Z,94559.88
2022-11-03T23:16:47.715Z,94544.34
2022-11-03T23:19:34.945Z,94559.47
2022-11-03T23:22:04.347Z,94545.75
2022-11-03T23:25:07.192Z,94566.19
2022-11-03T23:27:36.584Z,94565.97
2022-11-03T23:30:07.870Z,94567.34
2022-11-03T23:32:37.273Z,94573.69
2022-11-03T23:35:08.251Z,94581.53
2022-11-03T23:37:37.704Z,94581.75
2022-11-03T23:40:11.122Z,94600.31
2022-11-03T23:42:40.496Z,94605.19
2022-11-03T23:45:34.370Z,94617.16
2022-11-03T23:48:21.739Z,94614.47
2022-11-03T23:50:51.258Z,94609.97
2022-11-03T23:53:20.712Z,94642.56
2022-11-03T23:56:05.424Z,94621.31
2022-11-03T23:58:34.844Z,94637.25
